Time;durP1;ratioP1;P1;durP2;ratioP2;P2;SDS_P1;SDS_P2;PMS_P1;PMS_P2;Temp;Humidity;BMP_temperature;BMP_pressure;BME280_temperature;BME280_humidity;BME280_pressure;Samples;Min_cycle;Max_cycle;Signal;HPM_P1;HPM_P2
2022/08/27 00:01:54;;;;;;;36.00;33.50;;;19.10;99.90;;;;;;4971687;28;20484;-69
2022/08/27 00:04:20;;;;;;;36.87;34.37;;;19.10;99.90;;;;;;4971573;28;20466;-69
2022/08/27 00:06:47;;;;;;;37.23;34.27;;;19.10;99.90;;;;;;4971502;28;20455;-70
2022/08/27 00:09:14;;;;;;;38.07;35.00;;;19.10;99.90;;;;;;4971595;28;20866;-69
2022/08/27 00:11:40;;;;;;;36.30;33.63;;;19.20;99.90;;;;;;4971288;28;20518;-70
2022/08/27 00:14:08;;;;;;;39.70;36.50;;;19.20;99.90;;;;;;4971564;28;20836;-70
2022/08/27 00:16:35;;;;;;;39.00;35.63;;;19.30;99.90;;;;;;4971209;28;20455;-70
2022/08/27 00:19:02;;;;;;;38.50;35.60;;;19.20;99.90;;;;;;4971359;28;20605;-70
2022/08/27 00:21:29;;;;;;;37.57;34.57;;;19.30;99.90;;;;;;4971464;28;20451;-71
2022/08/27 00:23:55;;;;;;;38.53;35.50;;;19.30;99.90;;;;;;4971527;28;20455;-70
2022/08/27 00:26:22;;;;;;;38.90;36.00;;;19.40;99.90;;;;;;4971351;28;20448;-70
2022/08/27 00:28:49;;;;;;;40.00;36.43;;;19.40;99.90;;;;;;4971182;28;20519;-70
2022/08/27 00:31:17;;;;;;;39.20;36.20;;;19.50;99.90;;;;;;4971112;28;20817;-70
2022/08/27 00:33:44;;;;;;;41.97;38.37;;;19.50;99.90;;;;;;4971091;28;20989;-71
2022/08/27 00:36:12;;;;;;;43.13;39.60;;;19.50;99.90;;;;;;4971351;28;20817;-70
2022/08/27 00:38:40;;;;;;;39.07;35.87;;;19.50;99.90;;;;;;4971248;28;20448;-71
2022/08/27 00:41:10;;;;;;;40.90;37.33;;;19.60;99.90;;;;;;4971160;28;20531;-71
2022/08/27 00:43:46;;;;;;;39.70;36.50;;;19.70;99.90;;;;;;4970742;28;20487;-71
2022/08/27 00:46:20;;;;;;;41.13;37.50;;;19.70;99.90;;;;;;4970630;28;20463;-70
2022/08/27 00:48:47;;;;;;;37.37;34.20;;;19.80;99.90;;;;;;4970509;28;20913;-70
2022/08/27 00:51:14;;;;;;;38.33;35.27;;;19.80;99.90;;;;;;4970264;28;20487;-70
2022/08/27 00:53:41;;;;;;;37.10;34.10;;;19.80;99.90;;;;;;4970817;28;20480;-70
2022/08/27 00:56:11;;;;;;;38.80;35.50;;;19.80;99.90;;;;;;4970733;28;20518;-70
2022/08/27 00:58:40;;;;;;;36.77;33.90;;;19.80;99.90;;;;;;4970445;28;20486;-69
2022/08/27 01:01:11;;;;;;;39.93;36.73;;;19.70;99.90;;;;;;4970606;28;20447;-69
2022/08/27 01:03:39;;;;;;;40.73;36.73;;;19.80;99.90;;;;;;4970521;28;20809;-70
2022/08/27 01:06:10;;;;;;;40.17;36.80;;;19.90;99.90;;;;;;4970299;28;20451;-69
2022/08/27 01:08:41;;;;;;;38.17;34.70;;;19.80;99.90;;;;;;4970590;28;20459;-69
2022/08/27 01:11:09;;;;;;;39.00;35.60;;;19.80;99.90;;;;;;4970438;28;20467;-69
2022/08/27 01:13:38;;;;;;;39.17;35.83;;;19.80;99.90;;;;;;4970566;28;20456;-69
2022/08/27 01:16:06;;;;;;;36.27;33.17;;;19.80;99.90;;;;;;4970593;28;20464;-69
2022/08/27 01:18:36;;;;;;;39.37;36.10;;;19.90;99.90;;;;;;4970489;28;20460;-69
2022/08/27 01:21:09;;;;;;;36.77;33.53;;;19.90;99.90;;;;;;4970422;28;20538;-69
2022/08/27 01:23:43;;;;;;;39.27;36.17;;;19.90;99.90;;;;;;4973008;28;20495;-69
2022/08/27 01:26:14;;;;;;;36.33;33.27;;;19.80;99.90;;;;;;4974345;28;20946;-68
2022/08/27 01:28:43;;;;;;;36.00;33.20;;;19.80;99.90;;;;;;4974556;28;20463;-69
2022/08/27 01:31:12;;;;;;;40.23;36.40;;;19.90;99.90;;;;;;4974322;28;20807;-69
2022/08/27 01:33:39;;;;;;;39.77;36.40;;;19.90;99.90;;;;;;4974162;28;20816;-69
2022/08/27 01:36:06;;;;;;;41.13;37.63;;;20.00;99.90;;;;;;4973997;28;20885;-69
2022/08/27 01:38:34;;;;;;;42.63;39.10;;;20.00;99.90;;;;;;4974025;28;20458;-69
2022/08/27 01:41:01;;;;;;;41.50;38.13;;;19.90;99.90;;;;;;4973811;28;20459;-69
2022/08/27 01:43:31;;;;;;;43.93;40.10;;;19.80;99.90;;;;;;4974045;28;20537;-69
2022/08/27 01:45:57;;;;;;;44.37;40.27;;;19.80;99.90;;;;;;4973882;28;20481;-69
2022/08/27 01:48:24;;;;;;;46.27;42.43;;;19.90;99.90;;;;;;4973994;28;20848;-69
2022/08/27 01:50:51;;;;;;;43.20;39.60;;;20.00;99.90;;;;;;4973438;28;20487;-69
2022/08/27 01:53:20;;;;;;;47.60;43.27;;;20.00;99.90;;;;;;4973618;28;20514;-69
2022/08/27 01:55:48;;;;;;;43.97;40.17;;;20.10;99.90;;;;;;4973621;28;20527;-69
2022/08/27 01:58:16;;;;;;;42.97;39.23;;;20.00;99.90;;;;;;4973492;28;20456;-69
2022/08/27 02:00:46;;;;;;;41.33;37.43;;;20.10;99.90;;;;;;4973694;28;20877;-69
2022/08/27 02:03:16;;;;;;;41.57;37.87;;;20.10;99.90;;;;;;4973509;28;20485;-69
2022/08/27 02:05:44;;;;;;;38.20;35.37;;;20.00;99.90;;;;;;4973405;28;20490;-69
2022/08/27 02:08:10;;;;;;;40.47;36.57;;;20.10;99.90;;;;;;4973708;28;20463;-69
2022/08/27 02:10:39;;;;;;;38.50;35.20;;;20.10;99.90;;;;;;4973502;28;20541;-69
2022/08/27 02:13:07;;;;;;;39.87;36.50;;;20.10;99.90;;;;;;4973393;28;20791;-69
2022/08/27 02:15:35;;;;;;;38.63;35.63;;;20.00;99.90;;;;;;4973277;28;20483;-69
2022/08/27 02:18:05;;;;;;;37.87;34.80;;;20.10;99.90;;;;;;4973217;28;20526;-70
2022/08/27 02:20:33;;;;;;;38.53;35.33;;;20.00;99.90;;;;;;4972790;28;20891;-69
2022/08/27 02:23:00;;;;;;;38.97;35.07;;;20.00;99.90;;;;;;4972887;28;21110;-69
2022/08/27 02:25:27;;;;;;;35.43;32.53;;;19.90;99.90;;;;;;4973262;28;20806;-69
2022/08/27 02:27:55;;;;;;;39.20;35.63;;;19.90;99.90;;;;;;4973263;28;20542;-69
2022/08/27 02:30:23;;;;;;;38.00;35.00;;;20.00;99.90;;;;;;4972979;28;20825;-69
2022/08/27 02:32:51;;;;;;;34.87;32.07;;;19.90;99.90;;;;;;4972737;28;20448;-69
2022/08/27 02:35:21;;;;;;;37.10;34.10;;;19.90;99.90;;;;;;4972789;28;20577;-70
2022/08/27 02:37:48;;;;;;;33.87;31.47;;;20.00;99.90;;;;;;4972315;28;20502;-69
2022/08/27 02:40:17;;;;;;;34.33;31.57;;;20.00;99.90;;;;;;4972443;28;20444;-69
2022/08/27 02:42:44;;;;;;;34.23;31.67;;;20.00;99.90;;;;;;4972519;28;20479;-69
2022/08/27 02:45:12;;;;;;;32.13;29.67;;;20.00;99.90;;;;;;4973139;28;20476;-69
2022/08/27 02:47:38;;;;;;;32.37;29.63;;;20.10;99.90;;;;;;4972842;28;20783;-69
2022/08/27 02:50:07;;;;;;;31.90;29.63;;;20.10;99.90;;;;;;4972653;28;20852;-69
2022/08/27 02:52:35;;;;;;;32.67;30.27;;;20.20;99.90;;;;;;4969824;28;20476;-68
2022/08/27 02:55:02;;;;;;;33.00;30.50;;;20.10;99.90;;;;;;4972674;28;20701;-69
2022/08/27 02:57:30;;;;;;;33.17;30.33;;;20.10;99.90;;;;;;4972615;28;20444;-70
2022/08/27 02:59:56;;;;;;;33.40;30.97;;;20.20;99.90;;;;;;4972753;28;20910;-69
2022/08/27 03:02:23;;;;;;;30.00;27.70;;;20.20;99.90;;;;;;4972476;28;20790;-69
2022/08/27 03:04:51;;;;;;;30.23;28.23;;;20.30;99.90;;;;;;4972700;28;20797;-69
2022/08/27 03:07:18;;;;;;;33.83;31.07;;;20.30;99.90;;;;;;4972440;28;20478;-69
2022/08/27 03:09:46;;;;;;;35.17;32.23;;;20.30;99.90;;;;;;4972317;28;20452;-69
2022/08/27 03:12:12;;;;;;;32.03;29.80;;;20.30;99.90;;;;;;4972424;28;20826;-69
2022/08/27 03:14:39;;;;;;;32.10;29.70;;;20.30;99.90;;;;;;4972638;28;20440;-69
2022/08/27 03:19:47;;;;;;;32.10;29.80;;;20.40;99.90;;;;;;4970326;28;20522;-69
2022/08/27 03:22:14;;;;;;;31.97;29.70;;;20.50;99.90;;;;;;4969647;28;20466;-69
2022/08/27 03:24:40;;;;;;;31.53;28.93;;;20.50;99.90;;;;;;4972268;28;20492;-69
2022/08/27 03:27:08;;;;;;;30.37;27.93;;;20.50;99.90;;;;;;4972029;28;20453;-69
2022/08/27 03:29:36;;;;;;;32.23;29.70;;;20.50;99.90;;;;;;4969599;28;20451;-69
2022/08/27 03:32:05;;;;;;;34.27;31.53;;;20.50;99.90;;;;;;4971774;28;20452;-68
2022/08/27 03:34:33;;;;;;;39.77;36.60;;;20.40;99.90;;;;;;4971826;28;20436;-69
2022/08/27 03:37:00;;;;;;;40.60;37.43;;;20.40;99.90;;;;;;4971926;28;21162;-68
2022/08/27 03:39:27;;;;;;;41.00;37.70;;;20.40;99.90;;;;;;4972274;28;20463;-68
2022/08/27 03:41:54;;;;;;;42.30;38.90;;;20.50;99.90;;;;;;4972076;28;20497;-68
2022/08/27 03:44:22;;;;;;;42.37;38.80;;;20.50;99.90;;;;;;4971271;28;20487;-68
2022/08/27 03:46:49;;;;;;;41.80;38.20;;;20.60;99.90;;;;;;4970658;28;20539;-69
2022/08/27 03:49:17;;;;;;;42.00;38.47;;;20.70;99.90;;;;;;4971117;28;20447;-69
2022/08/27 03:51:43;;;;;;;38.90;35.80;;;20.60;99.90;;;;;;4970526;28;20981;-68
2022/08/27 03:54:10;;;;;;;40.10;36.87;;;20.70;99.90;;;;;;4969126;28;20510;-68
2022/08/27 03:56:38;;;;;;;42.57;38.90;;;20.60;99.90;;;;;;4970369;28;20451;-68
2022/08/27 03:59:05;;;;;;;39.17;36.10;;;20.60;99.90;;;;;;4970423;28;20529;-68
2022/08/27 04:01:33;;;;;;;37.50;34.60;;;20.60;99.90;;;;;;4970402;28;20463;-68
2022/08/27 04:04:00;;;;;;;37.60;34.40;;;20.50;99.90;;;;;;4970944;28;20491;-68
2022/08/27 04:06:27;;;;;;;35.00;32.50;;;20.50;99.90;;;;;;4971175;28;20451;-68
2022/08/27 04:08:53;;;;;;;31.50;29.00;;;20.50;99.90;;;;;;4970864;28;21064;-68
2022/08/27 04:11:20;;;;;;;35.30;32.63;;;20.40;99.90;;;;;;4970632;28;20992;-68
2022/08/27 04:13:47;;;;;;;32.50;29.93;;;20.40;99.90;;;;;;4971000;28;20479;-68
2022/08/27 04:16:14;;;;;;;34.20;31.70;;;20.40;99.90;;;;;;4970826;28;20487;-68
2022/08/27 04:18:42;;;;;;;37.73;34.43;;;20.40;99.90;;;;;;4971068;28;20510;-68
2022/08/27 04:21:11;;;;;;;36.37;33.47;;;20.40;99.90;;;;;;4971154;28;21051;-68
2022/08/27 04:23:38;;;;;;;37.90;35.00;;;20.40;99.90;;;;;;4970468;28;20492;-68
2022/08/27 04:26:05;;;;;;;38.47;35.43;;;20.30;99.90;;;;;;4970633;28;20452;-68
2022/08/27 04:28:32;;;;;;;39.23;36.07;;;20.20;99.90;;;;;;4970599;28;20514;-68
2022/08/27 04:30:58;;;;;;;40.47;37.07;;;20.20;99.90;;;;;;4970266;28;20938;-68
2022/08/27 04:33:26;;;;;;;43.03;39.50;;;20.10;99.90;;;;;;4970715;28;20530;-69
2022/08/27 04:35:59;;;;;;;39.70;36.40;;;20.20;99.90;;;;;;4970621;28;20484;-69
2022/08/27 04:38:25;;;;;;;41.30;38.20;;;19.90;99.90;;;;;;4970629;28;20460;-68
2022/08/27 04:43:36;;;;;;;46.47;41.97;;;20.30;99.90;;;;;;4970880;28;20851;-68
2022/08/27 04:46:03;;;;;;;45.00;40.90;;;20.30;99.90;;;;;;4970765;28;20767;-68
2022/08/27 04:48:30;;;;;;;44.20;40.47;;;20.30;99.90;;;;;;4970917;28;20451;-68
2022/08/27 04:50:58;;;;;;;44.77;40.87;;;20.30;99.90;;;;;;4970763;28;20546;-69
2022/08/27 04:53:25;;;;;;;46.37;42.47;;;20.40;99.90;;;;;;4971167;28;20451;-68
2022/08/27 04:55:54;;;;;;;45.13;41.13;;;20.30;99.90;;;;;;4971147;28;20451;-68
2022/08/27 04:58:22;;;;;;;47.23;42.97;;;20.40;99.90;;;;;;4970191;28;20477;-69
2022/08/27 05:00:51;;;;;;;47.73;43.53;;;20.40;99.90;;;;;;4970944;28;20452;-68
2022/08/27 05:03:20;;;;;;;47.97;43.97;;;20.50;99.90;;;;;;4970647;28;20476;-68
2022/08/27 05:05:47;;;;;;;48.13;44.20;;;20.60;99.90;;;;;;4970827;28;20463;-68
2022/08/27 05:08:16;;;;;;;49.87;45.33;;;20.60;99.90;;;;;;4970697;28;20459;-68
2022/08/27 05:10:44;;;;;;;51.47;47.03;;;20.50;99.90;;;;;;4970731;28;20456;-68
2022/08/27 05:13:11;;;;;;;50.37;45.93;;;20.60;99.90;;;;;;4971047;28;20479;-67
2022/08/27 05:15:38;;;;;;;50.57;46.07;;;20.60;99.90;;;;;;4970817;28;20807;-68
2022/08/27 05:18:06;;;;;;;48.57;44.30;;;20.50;99.90;;;;;;4970608;28;20474;-68
2022/08/27 05:20:34;;;;;;;51.93;46.80;;;20.50;99.90;;;;;;4970559;28;20452;-68
2022/08/27 05:23:01;;;;;;;50.57;45.77;;;20.60;99.90;;;;;;4970325;28;20451;-68
2022/08/27 05:25:29;;;;;;;51.87;47.03;;;20.50;99.90;;;;;;4970779;28;20459;-69
2022/08/27 05:27:56;;;;;;;50.50;46.20;;;20.50;99.90;;;;;;4970830;28;20502;-69
2022/08/27 05:30:23;;;;;;;50.63;46.33;;;20.60;99.90;;;;;;4970681;28;20460;-70
2022/08/27 05:32:49;;;;;;;48.63;44.43;;;20.60;99.90;;;;;;4970595;28;20874;-69
2022/08/27 05:35:18;;;;;;;49.83;45.53;;;20.70;99.90;;;;;;4968415;28;20451;-68
2022/08/27 05:37:45;;;;;;;50.37;46.13;;;20.30;99.90;;;;;;4969270;28;20550;-68
2022/08/27 05:40:12;;;;;;;49.73;45.47;;;20.60;99.90;;;;;;4967758;28;20463;-68
2022/08/27 05:42:41;;;;;;;51.00;46.40;;;20.60;99.90;;;;;;4969371;28;20506;-69
2022/08/27 05:45:09;;;;;;;49.47;45.17;;;20.70;99.90;;;;;;4969029;28;20491;-69
2022/08/27 05:47:36;;;;;;;49.90;45.40;;;20.80;99.90;;;;;;4968935;28;20448;-69
2022/08/27 05:50:03;;;;;;;48.20;44.17;;;20.80;99.90;;;;;;4968951;28;20511;-68
2022/08/27 05:52:30;;;;;;;48.43;44.10;;;20.90;99.90;;;;;;4968813;28;20495;-69
2022/08/27 05:54:56;;;;;;;47.23;43.20;;;20.90;99.90;;;;;;4969104;28;20451;-68
2022/08/27 05:57:23;;;;;;;49.03;44.93;;;20.90;99.90;;;;;;4969098;28;20941;-69
2022/08/27 06:02:36;;;;;;;51.53;46.97;;;21.10;99.90;;;;;;4969076;28;20434;-68
2022/08/27 06:05:03;;;;;;;48.13;43.87;;;21.10;99.90;;;;;;4968818;28;20703;-69
2022/08/27 06:07:30;;;;;;;47.60;43.53;;;21.10;99.90;;;;;;4968852;28;20467;-69
2022/08/27 06:09:57;;;;;;;49.90;45.27;;;21.20;99.90;;;;;;4971999;28;20542;-68
2022/08/27 06:12:24;;;;;;;46.70;42.70;;;21.20;99.90;;;;;;4972701;28;20518;-69
2022/08/27 06:14:52;;;;;;;51.57;46.93;;;21.20;99.90;;;;;;4972045;28;20451;-69
2022/08/27 06:17:19;;;;;;;49.87;45.57;;;21.10;99.90;;;;;;4972273;28;20482;-69
2022/08/27 06:19:46;;;;;;;48.47;44.23;;;21.10;99.90;;;;;;4972010;28;20459;-68
2022/08/27 06:22:13;;;;;;;48.63;44.27;;;21.20;99.90;;;;;;4972078;28;20522;-69
2022/08/27 06:24:41;;;;;;;47.57;43.43;;;21.30;99.90;;;;;;4971989;28;20491;-69
2022/08/27 06:27:10;;;;;;;47.33;43.27;;;21.30;99.90;;;;;;4972043;28;20906;-69
2022/08/27 06:29:37;;;;;;;44.43;40.70;;;21.30;99.90;;;;;;4971855;28;20464;-69
2022/08/27 06:32:05;;;;;;;49.60;45.33;;;21.40;99.90;;;;;;4971921;28;20721;-68
2022/08/27 06:34:33;;;;;;;48.93;44.83;;;21.30;99.90;;;;;;4971694;28;20864;-69
2022/08/27 06:37:00;;;;;;;45.33;41.37;;;21.30;99.90;;;;;;4971778;28;20451;-69
2022/08/27 06:39:27;;;;;;;45.17;41.37;;;21.30;99.90;;;;;;4972221;28;20533;-69
2022/08/27 06:41:53;;;;;;;42.50;39.10;;;21.40;99.90;;;;;;4971826;28;20800;-69
2022/08/27 06:44:21;;;;;;;45.47;41.80;;;21.60;99.90;;;;;;4971717;28;20487;-69
2022/08/27 06:46:47;;;;;;;44.23;40.30;;;21.70;99.90;;;;;;4971639;28;20842;-69
2022/08/27 06:49:15;;;;;;;47.40;43.10;;;21.60;99.90;;;;;;4971853;28;20530;-69
2022/08/27 06:51:45;;;;;;;47.00;43.07;;;21.70;99.90;;;;;;4971860;28;20487;-69
2022/08/27 06:54:13;;;;;;;47.00;43.20;;;21.70;99.90;;;;;;4971702;28;20826;-69
2022/08/27 06:56:41;;;;;;;45.90;42.20;;;21.70;99.90;;;;;;4971674;28;20527;-70
2022/08/27 06:59:10;;;;;;;46.70;42.53;;;21.60;99.90;;;;;;4971538;28;20456;-69
2022/08/27 07:01:38;;;;;;;47.43;43.73;;;21.60;99.90;;;;;;4971468;28;20477;-70
2022/08/27 07:04:07;;;;;;;44.93;41.13;;;21.60;99.90;;;;;;4971276;28;21055;-70
2022/08/27 07:06:36;;;;;;;49.27;44.60;;;21.70;99.90;;;;;;4971571;28;20466;-70
2022/08/27 07:09:05;;;;;;;45.00;41.40;;;21.70;99.90;;;;;;4971264;28;20965;-69
2022/08/27 07:11:32;;;;;;;45.63;41.73;;;21.60;99.90;;;;;;4971227;28;20526;-70
2022/08/27 07:13:59;;;;;;;43.97;40.30;;;21.70;99.90;;;;;;4971083;28;20499;-70
2022/08/27 07:16:28;;;;;;;45.03;41.23;;;21.90;99.90;;;;;;4971272;28;20454;-70
2022/08/27 07:18:57;;;;;;;44.87;40.83;;;21.90;99.90;;;;;;4971300;28;20451;-70
2022/08/27 07:21:24;;;;;;;44.80;41.17;;;22.00;99.90;;;;;;4970377;28;20510;-70
2022/08/27 07:23:54;;;;;;;42.20;38.73;;;22.10;99.90;;;;;;4970992;28;20946;-70
2022/08/27 07:26:23;;;;;;;43.33;39.77;;;22.20;99.90;;;;;;4968945;28;20459;-70
2022/08/27 07:28:50;;;;;;;43.50;40.33;;;22.30;99.90;;;;;;4970911;28;20452;-71
2022/08/27 07:31:19;;;;;;;42.10;38.83;;;22.40;99.90;;;;;;4970792;28;20613;-70
2022/08/27 07:33:46;;;;;;;45.23;41.50;;;22.50;99.90;;;;;;4970733;28;20447;-70
2022/08/27 07:36:13;;;;;;;41.53;38.03;;;22.80;99.90;;;;;;4970863;28;21070;-71
2022/08/27 07:38:39;;;;;;;42.50;39.00;;;22.80;99.90;;;;;;4970902;28;20448;-71
2022/08/27 07:41:09;;;;;;;41.67;37.97;;;23.00;99.90;;;;;;4970676;28;21009;-70
2022/08/27 07:46:22;;;;;;;39.20;36.10;;;22.80;99.90;;;;;;4971005;28;20435;-70
2022/08/27 07:48:49;;;;;;;42.87;39.37;;;22.60;99.90;;;;;;4970984;28;20925;-70
2022/08/27 07:51:18;;;;;;;42.50;39.13;;;22.40;99.90;;;;;;4970715;28;20898;-71
2022/08/27 07:53:45;;;;;;;40.23;37.33;;;22.40;99.90;;;;;;4971087;28;20503;-71
2022/08/27 07:56:14;;;;;;;43.93;40.43;;;22.40;99.90;;;;;;4971031;28;20526;-71
2022/08/27 07:58:40;;;;;;;44.17;40.67;;;22.30;99.90;;;;;;4970772;28;20454;-69
2022/08/27 08:01:08;;;;;;;45.07;41.27;;;22.20;99.90;;;;;;4970737;28;20452;-69
2022/08/27 08:03:35;;;;;;;43.93;40.10;;;22.20;99.90;;;;;;4970577;28;20456;-70
2022/08/27 08:06:04;;;;;;;44.60;40.70;;;22.20;99.90;;;;;;4970518;28;21033;-70
2022/08/27 08:08:33;;;;;;;43.60;39.83;;;22.20;99.90;;;;;;4970825;28;20459;-70
2022/08/27 08:11:02;;;;;;;43.03;39.70;;;22.20;99.90;;;;;;4970516;28;20451;-70
2022/08/27 08:13:31;;;;;;;43.03;39.20;;;22.10;99.90;;;;;;4970695;28;20479;-70
2022/08/27 08:15:58;;;;;;;45.93;42.33;;;22.10;99.90;;;;;;4970566;28;20444;-70
2022/08/27 08:18:27;;;;;;;45.20;41.23;;;22.00;99.90;;;;;;4970421;28;20451;-69
2022/08/27 08:20:59;;;;;;;44.70;41.23;;;22.10;99.90;;;;;;4970826;28;20823;-70
2022/08/27 08:23:26;;;;;;;45.47;41.87;;;22.00;99.90;;;;;;4970753;28;20467;-70
2022/08/27 08:25:53;;;;;;;45.23;41.40;;;22.00;99.90;;;;;;4970509;28;20487;-70
2022/08/27 08:28:20;;;;;;;46.30;41.30;;;22.00;99.90;;;;;;4970185;28;20550;-70
2022/08/27 08:30:48;;;;;;;46.83;42.57;;;21.80;99.90;;;;;;4970182;28;20455;-70
2022/08/27 08:33:15;;;;;;;46.37;42.13;;;21.60;99.90;;;;;;4970221;28;20459;-70
2022/08/27 08:35:42;;;;;;;49.47;44.93;;;21.60;99.90;;;;;;4970691;28;20563;-70
2022/08/27 08:38:09;;;;;;;49.07;44.97;;;21.50;99.90;;;;;;4970540;28;20455;-70
2022/08/27 08:40:40;;;;;;;47.27;43.27;;;21.50;99.90;;;;;;4970453;28;20950;-70
2022/08/27 08:43:14;;;;;;;49.87;45.70;;;21.40;99.90;;;;;;4970482;28;20883;-71
2022/08/27 08:45:42;;;;;;;62.93;57.77;;;21.40;99.90;;;;;;4970344;28;20893;-71
2022/08/27 08:48:15;;;;;;;68.10;62.33;;;21.40;99.90;;;;;;4970193;28;20451;-70
2022/08/27 08:50:53;;;;;;;74.73;68.57;;;21.20;99.90;;;;;;4969476;28;20479;-71
2022/08/27 08:53:26;;;;;;;74.27;68.33;;;21.20;99.90;;;;;;4967620;28;20459;-72
2022/08/27 08:55:57;;;;;;;73.93;68.00;;;21.00;99.90;;;;;;4965235;28;20462;-74
2022/08/27 08:58:33;;;;;;;78.30;71.80;;;20.90;99.90;;;;;;4969190;28;20460;-73
2022/08/27 09:01:03;;;;;;;74.40;68.10;;;20.90;99.90;;;;;;4967702;28;20447;-73
2022/08/27 09:03:35;;;;;;;69.00;63.10;;;20.80;99.90;;;;;;4969114;28;20865;-72
2022/08/27 09:06:04;;;;;;;70.47;64.63;;;20.70;99.90;;;;;;4968943;28;20997;-73
2022/08/27 09:08:34;;;;;;;73.33;66.73;;;20.60;99.90;;;;;;4966429;28;20452;-71
2022/08/27 09:11:07;;;;;;;77.07;70.17;;;20.50;99.90;;;;;;4968936;28;20485;-71
2022/08/27 09:13:39;;;;;;;75.73;69.20;;;20.40;99.90;;;;;;4966614;28;20447;-70
2022/08/27 09:16:06;;;;;;;74.00;67.70;;;20.50;99.90;;;;;;4968746;28;20448;-71
2022/08/27 09:18:37;;;;;;;77.77;71.47;;;20.60;99.90;;;;;;4968762;28;20864;-71
2022/08/27 09:21:16;;;;;;;74.77;68.57;;;20.60;99.90;;;;;;4968884;28;20510;-71
2022/08/27 09:23:52;;;;;;;71.90;65.50;;;20.70;99.90;;;;;;4967892;28;20466;-71
2022/08/27 09:26:21;;;;;;;76.70;70.10;;;20.90;99.90;;;;;;4966946;28;20489;-71
2022/08/27 09:31:39;;;;;;;76.80;70.50;;;20.80;99.90;;;;;;4966795;28;20427;-71
2022/08/27 09:34:08;;;;;;;73.97;68.17;;;21.00;99.90;;;;;;4968543;28;20958;-71
2022/08/27 09:36:35;;;;;;;73.10;67.00;;;21.20;99.90;;;;;;4968755;28;20448;-71
2022/08/27 09:39:06;;;;;;;68.83;63.33;;;21.20;99.90;;;;;;4968601;28;20781;-71
2022/08/27 09:41:42;;;;;;;70.03;64.53;;;21.00;99.90;;;;;;4966269;28;20452;-71
2022/08/27 09:44:11;;;;;;;69.67;63.93;;;20.90;99.90;;;;;;4971092;28;20446;-71
2022/08/27 09:46:38;;;;;;;68.53;63.20;;;20.90;99.90;;;;;;4972816;28;20570;-72
2022/08/27 09:49:12;;;;;;;71.17;65.37;;;21.30;99.90;;;;;;4972599;28;20778;-71
2022/08/27 09:51:41;;;;;;;72.53;66.83;;;21.00;99.90;;;;;;4971259;28;20471;-71
2022/08/27 09:54:08;;;;;;;69.97;64.27;;;21.00;99.90;;;;;;4972729;28;20490;-71
2022/08/27 09:56:38;;;;;;;71.97;66.50;;;21.00;99.90;;;;;;4972474;28;20432;-72
2022/08/27 09:59:07;;;;;;;68.80;63.50;;;21.00;99.90;;;;;;4972053;28;20957;-72
2022/08/27 10:01:37;;;;;;;67.90;62.30;;;21.10;99.90;;;;;;4970134;28;20451;-72
2022/08/27 10:04:07;;;;;;;71.03;65.43;;;21.10;99.90;;;;;;4972165;28;20455;-71
2022/08/27 10:06:36;;;;;;;65.93;60.50;;;21.20;99.90;;;;;;4969960;28;20772;-72
2022/08/27 10:09:09;;;;;;;63.40;58.20;;;21.00;99.90;;;;;;4972308;28;20732;-71
2022/08/27 10:11:40;;;;;;;60.47;56.07;;;21.10;99.90;;;;;;4953847;29;20526;-71
2022/08/27 10:14:13;;;;;;;62.90;58.23;;;21.20;99.90;;;;;;4953963;29;20870;-71
2022/08/27 10:16:51;;;;;;;65.37;60.37;;;21.30;99.90;;;;;;4954384;29;20452;-71
2022/08/27 10:19:33;;;;;;;64.60;59.40;;;21.30;99.90;;;;;;4966642;28;20905;-70
2022/08/27 10:22:10;;;;;;;66.13;61.27;;;21.40;99.90;;;;;;4971686;28;20529;-70
2022/08/27 10:24:45;;;;;;;63.87;59.03;;;21.50;99.90;;;;;;4972050;28;20813;-71
2022/08/27 10:27:19;;;;;;;66.07;61.17;;;21.40;99.90;;;;;;4970769;28;20860;-70
2022/08/27 10:29:52;;;;;;;61.23;56.17;;;21.60;99.90;;;;;;4969642;28;20443;-71
2022/08/27 10:32:33;;;;;;;61.47;57.00;;;21.40;99.90;;;;;;4972007;28;20522;-70
2022/08/27 10:35:12;;;;;;;61.50;56.97;;;21.50;99.90;;;;;;4971250;28;20447;-70
2022/08/27 10:37:48;;;;;;;65.03;60.03;;;21.40;99.90;;;;;;4972009;28;20439;-70
2022/08/27 10:40:19;;;;;;;61.53;56.73;;;21.60;99.90;;;;;;4970641;28;20443;-69
2022/08/27 10:42:51;;;;;;;61.23;56.50;;;21.70;99.90;;;;;;4969259;28;20444;-69
2022/08/27 10:45:28;;;;;;;62.87;57.90;;;21.80;99.90;;;;;;4971544;28;20801;-69
2022/08/27 10:48:06;;;;;;;64.77;59.90;;;21.70;99.90;;;;;;4971086;28;20555;-69
2022/08/27 10:50:42;;;;;;;65.03;60.27;;;21.90;99.90;;;;;;4969993;28;20743;-69
2022/08/27 10:53:17;;;;;;;62.77;58.07;;;22.00;99.90;;;;;;4969759;28;20443;-68
2022/08/27 10:55:51;;;;;;;62.47;57.47;;;22.00;99.90;;;;;;4971605;28;20443;-69
2022/08/27 10:58:36;;;;;;;61.20;56.60;;;21.80;99.90;;;;;;4971473;28;20551;-69
2022/08/27 11:01:10;;;;;;;64.27;59.37;;;21.90;99.90;;;;;;4971071;28;20444;-68
2022/08/27 11:03:42;;;;;;;65.73;60.57;;;21.90;99.90;;;;;;4971441;28;20966;-69
2022/08/27 11:06:15;;;;;;;66.40;60.97;;;21.90;99.90;;;;;;4969422;28;20488;-69
2022/08/27 11:08:49;;;;;;;66.40;61.53;;;21.80;99.90;;;;;;4971469;28;20451;-68
2022/08/27 11:11:25;;;;;;;63.33;58.53;;;21.80;99.90;;;;;;4971214;28;20458;-69
2022/08/27 11:13:53;;;;;;;60.40;55.70;;;21.70;99.90;;;;;;4969249;28;20589;-69
2022/08/27 11:16:25;;;;;;;60.40;55.90;;;21.70;99.90;;;;;;4971015;28;20503;-69
2022/08/27 11:18:57;;;;;;;67.97;63.07;;;21.60;99.90;;;;;;4971220;28;20539;-68
2022/08/27 11:21:33;;;;;;;68.63;63.63;;;21.40;99.90;;;;;;4971053;28;20942;-69
2022/08/27 11:24:14;;;;;;;64.40;59.63;;;21.30;99.90;;;;;;4970896;28;20922;-69
2022/08/27 11:26:42;;;;;;;68.70;63.07;;;21.20;99.90;;;;;;4971105;28;20491;-70
2022/08/27 11:29:18;;;;;;;68.80;63.73;;;21.10;99.90;;;;;;4970961;28;20435;-69
2022/08/27 11:31:51;;;;;;;66.07;60.93;;;21.10;99.90;;;;;;4968216;28;20443;-69
2022/08/27 11:34:25;;;;;;;64.53;59.10;;;21.10;99.90;;;;;;4970742;28;20447;-69
2022/08/27 11:37:11;;;;;;;64.70;59.30;;;21.00;99.90;;;;;;4969128;28;21016;-70
2022/08/27 11:39:56;;;;;;;70.40;64.60;;;21.10;99.90;;;;;;4970172;28;20526;-70
2022/08/27 11:42:34;;;;;;;68.00;62.43;;;21.00;99.90;;;;;;4970365;28;20447;-69
2022/08/27 11:45:06;;;;;;;67.27;61.80;;;21.00;99.90;;;;;;4970440;28;20455;-70
2022/08/27 11:47:33;;;;;;;68.77;63.17;;;21.00;99.90;;;;;;4970629;28;20892;-71
2022/08/27 11:50:02;;;;;;;73.30;67.30;;;20.90;99.90;;;;;;4970422;28;20888;-70
2022/08/27 11:52:34;;;;;;;70.87;65.10;;;21.00;99.90;;;;;;4968185;28;20476;-70
2022/08/27 11:55:14;;;;;;;78.20;72.10;;;21.10;99.90;;;;;;4970557;28;20459;-70
2022/08/27 11:57:41;;;;;;;72.83;66.90;;;21.20;99.90;;;;;;4970638;28;20443;-70
2022/08/27 12:00:17;;;;;;;70.37;65.03;;;21.20;99.90;;;;;;4970633;28;20448;-70
2022/08/27 12:02:57;;;;;;;70.93;65.43;;;21.10;99.90;;;;;;4970332;28;20440;-69
2022/08/27 12:05:34;;;;;;;73.73;67.93;;;21.20;99.90;;;;;;4969982;28;20447;-69
2022/08/27 12:08:14;;;;;;;72.17;66.23;;;21.20;99.90;;;;;;4969999;28;20836;-68
2022/08/27 12:10:58;;;;;;;71.80;65.80;;;21.30;99.90;;;;;;4971573;28;20459;-69
2022/08/27 12:13:32;;;;;;;68.10;62.40;;;21.30;99.90;;;;;;4971609;28;20451;-68
2022/08/27 12:16:05;;;;;;;68.37;62.40;;;21.50;99.90;;;;;;4971004;28;20941;-69
2022/08/27 12:18:43;;;;;;;72.30;66.73;;;21.70;99.90;;;;;;4971216;28;20456;-69
2022/08/27 12:21:19;;;;;;;67.80;62.10;;;21.80;99.90;;;;;;4970190;28;20509;-72
2022/08/27 12:24:03;;;;;;;73.53;67.80;;;22.00;99.90;;;;;;4951648;29;20460;-72
2022/08/27 12:26:34;;;;;;;77.27;71.87;;;22.30;99.90;;;;;;4951785;29;20824;-71
2022/08/27 12:29:33;;;;;;;78.83;72.70;;;22.50;99.90;;;;;;4955977;28;20510;-72
2022/08/27 12:32:05;;;;;;;74.87;69.50;;;22.70;99.90;;;;;;4971411;28;20930;-71
2022/08/27 12:34:43;;;;;;;72.87;67.50;;;22.90;99.90;;;;;;4971032;28;20483;-70
2022/08/27 12:37:11;;;;;;;65.97;60.67;;;22.80;99.90;;;;;;4971557;28;20500;-69
2022/08/27 12:39:42;;;;;;;71.20;65.70;;;23.30;99.90;;;;;;4971198;28;20896;-69
2022/08/27 12:42:17;;;;;;;64.53;59.73;;;23.10;99.90;;;;;;4971362;28;20451;-69
2022/08/27 12:44:44;;;;;;;73.07;67.77;;;23.30;99.90;;;;;;4970465;28;20463;-69
2022/08/27 12:47:14;;;;;;;68.57;63.43;;;23.50;99.90;;;;;;4970471;28;20487;-70
2022/08/27 12:49:46;;;;;;;66.13;60.93;;;23.60;99.90;;;;;;4970615;28;20720;-70
2022/08/27 12:52:25;;;;;;;65.47;60.40;;;23.60;99.90;;;;;;4970163;28;20475;-70
2022/08/27 12:55:01;;;;;;;66.67;61.47;;;23.60;99.90;;;;;;4970171;28;21008;-70